createdAt,value
2019-01-15T00:01:00.895Z,4.20
2019-01-15T00:03:48.931Z,4.20
2019-01-15T00:06:36.854Z,4.10
2019-01-15T00:09:25.121Z,4.10
2019-01-15T00:12:12.855Z,4.20
2019-01-15T00:15:00.859Z,4.20
2019-01-15T00:17:49.207Z,4.10
2019-01-15T00:20:37.221Z,4.20
2019-01-15T00:23:25.492Z,4.20
2019-01-15T00:26:13.504Z,4.20
2019-01-15T00:29:01.123Z,4.20
2019-01-15T00:31:49.248Z,4.20
2019-01-15T00:34:37.005Z,4.20
2019-01-15T00:37:24.556Z,4.10
2019-01-15T00:40:14.584Z,4.00
2019-01-15T00:43:02.982Z,4.00
2019-01-15T00:45:51.184Z,4.00
2019-01-15T00:48:39.288Z,4.00
2019-01-15T00:51:27.159Z,4.00
2019-01-15T00:54:15.115Z,4.10
2019-01-15T00:57:02.644Z,4.10
2019-01-15T00:59:50.695Z,4.10
2019-01-15T01:02:38.980Z,4.20
2019-01-15T01:05:26.717Z,4.10
2019-01-15T01:08:14.676Z,4.10
2019-01-15T01:11:02.375Z,4.10
2019-01-15T01:13:50.494Z,4.10
2019-01-15T01:16:38.456Z,4.10
2019-01-15T01:19:26.563Z,4.00
2019-01-15T01:22:14.653Z,4.00
2019-01-15T01:25:02.639Z,4.10
2019-01-15T01:27:50.572Z,4.10
2019-01-15T01:30:38.873Z,4.10
2019-01-15T01:33:26.607Z,4.10
2019-01-15T01:36:14.793Z,4.10
2019-01-15T01:39:02.468Z,4.10
2019-01-15T01:41:50.024Z,4.10
2019-01-15T01:44:37.668Z,4.00
2019-01-15T01:47:25.747Z,4.10
2019-01-15T01:50:14.083Z,4.10
2019-01-15T01:53:01.577Z,4.10
2019-01-15T01:55:50.145Z,4.10
2019-01-15T01:58:38.240Z,4.00
2019-01-15T02:01:26.091Z,3.90
2019-01-15T02:04:14.478Z,3.80
2019-01-15T02:07:02.661Z,3.80
2019-01-15T02:09:50.699Z,3.70
2019-01-15T02:12:38.987Z,3.70
2019-01-15T02:15:26.743Z,3.70
2019-01-15T02:18:15.039Z,3.60
2019-01-15T02:21:02.967Z,3.60
2019-01-15T02:23:51.020Z,3.60
2019-01-15T02:26:40.007Z,3.60
2019-01-15T02:29:29.205Z,3.50
2019-01-15T02:32:18.339Z,3.50
2019-01-15T02:35:07.623Z,3.50
2019-01-15T02:37:56.083Z,3.50
2019-01-15T02:40:45.167Z,3.50
2019-01-15T02:43:34.271Z,3.50
2019-01-15T02:46:23.133Z,3.50
2019-01-15T02:49:11.983Z,3.50
2019-01-15T02:52:00.972Z,3.60
2019-01-15T02:54:49.875Z,3.60
2019-01-15T02:57:38.468Z,3.60
2019-01-15T03:00:27.644Z,3.70
2019-01-15T03:03:15.990Z,3.70
2019-01-15T03:06:04.976Z,3.80
2019-01-15T03:08:53.548Z,3.90
2019-01-15T03:11:41.481Z,4.00
2019-01-15T03:14:29.612Z,4.00
2019-01-15T03:17:17.635Z,4.10
2019-01-15T03:20:08.694Z,4.10
2019-01-15T03:22:56.939Z,4.00
2019-01-15T03:25:44.904Z,4.00
2019-01-15T03:28:32.637Z,3.90
2019-01-15T03:31:20.839Z,4.00
2019-01-15T03:34:08.911Z,4.00
2019-01-15T03:36:56.668Z,4.00
2019-01-15T03:39:44.639Z,3.90
2019-01-15T03:42:32.589Z,3.90
2019-01-15T03:45:20.751Z,3.80
2019-01-15T03:48:08.703Z,3.70
2019-01-15T03:50:57.743Z,3.70
2019-01-15T03:53:46.787Z,3.70
2019-01-15T03:56:34.683Z,3.70
2019-01-15T03:59:23.167Z,3.70
2019-01-15T04:02:13.095Z,3.70
2019-01-15T04:05:02.446Z,3.60
2019-01-15T04:07:52.440Z,3.60
2019-01-15T04:10:41.435Z,3.60
2019-01-15T04:13:29.730Z,3.50
2019-01-15T04:16:18.664Z,3.50
2019-01-15T04:19:07.838Z,3.50
2019-01-15T04:21:56.625Z,3.40
2019-01-15T04:24:45.536Z,3.40
2019-01-15T04:27:34.261Z,3.50
2019-01-15T04:30:23.489Z,3.60
2019-01-15T04:33:12.379Z,3.60
2019-01-15T04:36:01.244Z,3.70
2019-01-15T04:38:50.225Z,3.70
2019-01-15T04:41:39.261Z,3.70
2019-01-15T04:44:28.093Z,3.70
2019-01-15T04:47:17.271Z,3.80
2019-01-15T04:50:09.481Z,3.90
2019-01-15T04:53:00.315Z,3.90
2019-01-15T04:55:49.424Z,3.90
2019-01-15T04:58:37.598Z,3.80
2019-01-15T05:01:25.768Z,3.90
2019-01-15T05:04:13.744Z,3.80
2019-01-15T05:07:01.569Z,3.70
2019-01-15T05:09:50.132Z,3.70
2019-01-15T05:12:39.223Z,3.70
2019-01-15T05:15:27.551Z,3.60
2019-01-15T05:18:16.142Z,3.60
2019-01-15T05:21:05.088Z,3.60
2019-01-15T05:23:54.200Z,3.60
2019-01-15T05:26:42.596Z,3.60
2019-01-15T05:29:31.665Z,3.50
2019-01-15T05:32:20.681Z,3.50
2019-01-15T05:35:09.810Z,3.60
2019-01-15T05:37:58.927Z,3.50
2019-01-15T05:40:47.686Z,3.60
2019-01-15T05:43:36.115Z,3.50
2019-01-15T05:46:25.239Z,3.50
2019-01-15T05:49:14.660Z,3.50
2019-01-15T05:52:03.781Z,3.40
2019-01-15T05:54:52.040Z,3.40
2019-01-15T05:57:41.027Z,3.40
2019-01-15T06:00:30.014Z,3.40
2019-01-15T06:03:18.966Z,3.40
2019-01-15T06:06:07.969Z,3.40
2019-01-15T06:08:56.533Z,3.40
2019-01-15T06:11:45.552Z,3.40
2019-01-15T06:14:33.913Z,3.50
2019-01-15T06:17:23.061Z,3.50
2019-01-15T06:20:18.252Z,3.50
2019-01-15T06:23:06.574Z,3.50
2019-01-15T06:25:56.854Z,3.50
2019-01-15T06:28:46.176Z,3.50
2019-01-15T06:31:35.114Z,3.50
2019-01-15T06:34:24.023Z,3.50
2019-01-15T06:37:12.909Z,3.60
2019-01-15T06:40:02.050Z,3.60
2019-01-15T06:42:50.944Z,3.60
2019-01-15T06:45:39.822Z,3.70
2019-01-15T06:48:29.054Z,3.70
2019-01-15T06:51:17.917Z,3.70
2019-01-15T06:54:06.940Z,3.80
2019-01-15T06:56:55.767Z,3.80
2019-01-15T06:59:44.471Z,3.90
2019-01-15T07:02:33.185Z,3.90
2019-01-15T07:05:22.175Z,4.00
2019-01-15T07:08:11.242Z,4.10
2019-01-15T07:10:59.888Z,4.30
2019-01-15T07:13:49.120Z,4.30
2019-01-15T07:16:38.102Z,4.40
2019-01-15T07:19:26.928Z,4.50
2019-01-15T07:22:16.090Z,4.50
2019-01-15T07:25:08.827Z,4.60
2019-01-15T07:27:57.971Z,4.60
2019-01-15T07:30:49.525Z,4.60
2019-01-15T07:33:38.755Z,4.70
2019-01-15T07:36:28.141Z,4.80
2019-01-15T07:39:16.831Z,4.80
2019-01-15T07:42:05.755Z,4.90
2019-01-15T07:44:54.488Z,4.90
2019-01-15T07:47:43.029Z,4.90
2019-01-15T07:50:31.930Z,5.00
2019-01-15T07:53:20.843Z,4.90
2019-01-15T07:56:10.020Z,4.90
2019-01-15T07:58:58.362Z,4.90
2019-01-15T08:01:47.537Z,4.90
2019-01-15T08:04:36.560Z,4.90
2019-01-15T08:07:25.200Z,4.90
2019-01-15T08:10:16.967Z,4.90
2019-01-15T08:13:06.248Z,4.90
2019-01-15T08:15:56.439Z,4.90
2019-01-15T08:18:45.516Z,5.00
2019-01-15T08:21:34.754Z,5.00
2019-01-15T08:24:23.915Z,5.00
2019-01-15T08:27:12.950Z,5.00
2019-01-15T08:30:01.918Z,5.10
2019-01-15T08:32:50.988Z,5.10
2019-01-15T08:35:39.446Z,5.10
2019-01-15T08:38:28.413Z,5.20
2019-01-15T08:41:16.811Z,5.20
2019-01-15T08:44:05.421Z,5.20
2019-01-15T08:46:54.616Z,5.20
2019-01-15T08:49:43.493Z,5.30
2019-01-15T08:52:32.158Z,5.30
2019-01-15T08:55:20.807Z,5.30
2019-01-15T08:58:09.390Z,5.40
2019-01-15T09:00:58.096Z,5.40
2019-01-15T09:03:46.723Z,5.40
2019-01-15T09:06:36.022Z,5.40
2019-01-15T09:09:25.184Z,5.50
2019-01-15T09:12:14.250Z,5.40
2019-01-15T09:15:02.467Z,5.40
2019-01-15T09:17:51.552Z,5.50
2019-01-15T09:20:40.306Z,5.50
2019-01-15T09:23:28.988Z,5.60
2019-01-15T09:26:17.665Z,5.60
2019-01-15T09:29:06.389Z,5.60
2019-01-15T09:31:55.245Z,5.70
2019-01-15T09:34:44.515Z,5.70
2019-01-15T09:37:34.169Z,5.80
2019-01-15T09:40:24.323Z,5.80
2019-01-15T09:43:12.652Z,5.80
2019-01-15T09:46:00.995Z,5.80
2019-01-15T09:48:50.036Z,5.90
2019-01-15T09:51:39.114Z,5.90
2019-01-15T09:54:27.993Z,5.90
2019-01-15T09:57:16.364Z,5.90
2019-01-15T10:00:12.582Z,5.90
2019-01-15T10:03:01.536Z,5.90
2019-01-15T10:05:49.820Z,5.90
2019-01-15T10:08:38.771Z,5.90
2019-01-15T10:11:27.678Z,5.90
2019-01-15T10:14:16.584Z,6.00
2019-01-15T10:17:05.483Z,6.00
2019-01-15T10:19:54.461Z,6.10
2019-01-15T10:22:43.330Z,6.10
2019-01-15T10:25:32.362Z,6.20
2019-01-15T10:28:21.166Z,6.20
2019-01-15T10:31:29.401Z,6.20
2019-01-15T10:34:19.808Z,6.30
2019-01-15T10:37:06.682Z,6.20
2019-01-15T10:39:55.855Z,6.20
2019-01-15T10:42:44.683Z,6.30
2019-01-15T10:45:33.742Z,6.30
2019-01-15T10:48:23.003Z,6.30
2019-01-15T10:51:12.188Z,6.30
2019-01-15T10:54:00.956Z,6.40
2019-01-15T10:56:49.340Z,6.40
2019-01-15T10:59:38.088Z,6.40
2019-01-15T11:02:26.917Z,6.50
2019-01-15T11:05:15.987Z,6.50
2019-01-15T11:08:04.577Z,6.50
2019-01-15T11:10:53.585Z,6.50
2019-01-15T11:13:42.019Z,6.50
2019-01-15T11:16:31.067Z,6.60
2019-01-15T11:19:19.786Z,6.60
2019-01-15T11:22:08.851Z,6.60
2019-01-15T11:24:57.552Z,6.50
2019-01-15T11:27:46.679Z,6.50
2019-01-15T11:30:35.583Z,6.60
2019-01-15T11:33:24.175Z,6.60
2019-01-15T11:36:13.165Z,6.60
2019-01-15T11:39:02.224Z,6.60
2019-01-15T11:41:51.240Z,6.60
2019-01-15T11:44:40.036Z,6.60
2019-01-15T11:47:29.155Z,6.60
2019-01-15T11:50:23.905Z,6.60
2019-01-15T11:53:12.714Z,6.60
2019-01-15T11:56:01.502Z,6.70
2019-01-15T11:58:51.510Z,6.60
2019-01-15T12:01:41.691Z,6.60
2019-01-15T12:04:47.871Z,6.60
2019-01-15T12:07:38.338Z,6.60
2019-01-15T12:10:44.597Z,6.60
2019-01-15T12:13:38.895Z,6.70
2019-01-15T12:16:42.726Z,6.70
2019-01-15T12:19:36.430Z,6.70
2019-01-15T12:22:35.536Z,6.70
2019-01-15T12:25:26.297Z,6.70
2019-01-15T12:28:25.170Z,6.70
2019-01-15T12:31:21.899Z,6.70
2019-01-15T12:34:18.569Z,6.70
2019-01-15T12:37:25.141Z,6.80
2019-01-15T12:40:18.928Z,6.80
2019-01-15T12:43:12.062Z,6.80
2019-01-15T12:46:14.099Z,6.80
2019-01-15T12:49:07.285Z,6.80
2019-01-15T12:52:10.282Z,6.80
2019-01-15T12:55:02.964Z,6.80
2019-01-15T12:58:05.478Z,6.80
2019-01-15T13:01:11.943Z,6.80
2019-01-15T13:04:04.849Z,6.80
2019-01-15T13:07:03.119Z,6.80
2019-01-15T13:09:59.534Z,6.90
2019-01-15T13:12:49.693Z,6.80
2019-01-15T13:15:52.295Z,6.90
2019-01-15T13:18:42.463Z,6.80
2019-01-15T13:21:36.181Z,6.80
2019-01-15T13:24:32.359Z,6.90
2019-01-15T13:27:28.624Z,6.80
2019-01-15T13:30:19.313Z,6.90
2019-01-15T13:33:10.630Z,6.90
2019-01-15T13:36:07.730Z,6.90
2019-01-15T13:39:06.883Z,6.90
2019-01-15T13:42:05.887Z,6.90
2019-01-15T13:44:56.166Z,7.00
2019-01-15T13:47:55.636Z,7.00
2019-01-15T13:50:45.620Z,7.00
2019-01-15T13:53:36.118Z,6.90
2019-01-15T13:56:29.434Z,7.00
2019-01-15T13:59:25.272Z,7.00
2019-01-15T14:02:30.489Z,7.00
2019-01-15T14:05:23.443Z,7.00
2019-01-15T14:08:19.496Z,7.00
2019-01-15T14:11:12.554Z,7.00
2019-01-15T14:14:14.878Z,7.00
2019-01-15T14:17:10.959Z,7.00
2019-01-15T14:20:01.306Z,7.00
2019-01-15T14:23:06.649Z,7.00
2019-01-15T14:26:00.127Z,7.00
2019-01-15T14:28:56.120Z,7.00
2019-01-15T14:31:51.947Z,7.10
2019-01-15T14:34:43.711Z,7.10
2019-01-15T14:37:37.505Z,7.10
2019-01-15T14:40:43.557Z,7.00
2019-01-15T14:43:33.738Z,7.00
2019-01-15T14:46:35.511Z,7.10
2019-01-15T14:49:31.742Z,7.00
2019-01-15T14:52:30.034Z,7.00
2019-01-15T14:55:20.851Z,7.00
2019-01-15T14:58:13.496Z,7.00
2019-01-15T15:01:20.083Z,7.00
2019-01-15T15:04:10.619Z,7.00
2019-01-15T15:07:16.733Z,7.00
2019-01-15T15:10:20.359Z,7.00
2019-01-15T15:13:25.708Z,7.00
2019-01-15T15:16:16.206Z,7.00
2019-01-15T15:19:09.702Z,7.10
2019-01-15T15:22:16.087Z,7.00
2019-01-15T15:25:09.899Z,7.10
2019-01-15T15:28:05.982Z,7.10
2019-01-15T15:31:02.047Z,7.00
2019-01-15T15:34:08.209Z,7.00
2019-01-15T15:37:10.617Z,7.00
2019-01-15T15:40:15.739Z,7.00
2019-01-15T15:43:09.062Z,7.10
2019-01-15T15:46:11.480Z,7.10
2019-01-15T15:49:01.698Z,7.10
2019-01-15T15:52:06.937Z,7.10
2019-01-15T15:54:58.413Z,7.10
2019-01-15T15:58:04.973Z,7.10
2019-01-15T16:00:55.560Z,7.10
2019-01-15T16:03:52.020Z,7.10
2019-01-15T16:06:48.545Z,7.10
2019-01-15T16:09:44.555Z,7.10
2019-01-15T16:12:40.454Z,7.10
2019-01-15T16:15:30.622Z,7.10
2019-01-15T16:18:26.976Z,7.20
2019-01-15T16:21:17.213Z,7.20
2019-01-15T16:24:10.736Z,7.20
2019-01-15T16:27:16.974Z,7.20
2019-01-15T16:30:29.650Z,7.20
2019-01-15T16:33:22.421Z,7.20
2019-01-15T16:36:14.679Z,7.20
2019-01-15T16:39:09.652Z,7.20
2019-01-15T16:42:08.237Z,7.20
2019-01-15T16:45:07.893Z,7.20
2019-01-15T16:47:58.668Z,7.30
2019-01-15T16:50:51.542Z,7.30
2019-01-15T16:53:42.293Z,7.30
2019-01-15T16:56:34.865Z,7.30
2019-01-15T16:59:34.215Z,7.30
2019-01-15T17:02:33.622Z,7.30
2019-01-15T17:05:26.868Z,7.30
2019-01-15T17:08:17.431Z,7.40
2019-01-15T17:11:08.054Z,7.40
2019-01-15T17:13:58.113Z,7.40
2019-01-15T17:16:48.921Z,7.40
2019-01-15T17:19:45.325Z,7.40
2019-01-15T17:22:51.918Z,7.40
2019-01-15T17:25:41.976Z,7.40
2019-01-15T17:28:44.197Z,7.40
2019-01-15T17:31:43.875Z,7.40
2019-01-15T17:34:36.901Z,7.40
2019-01-15T17:37:32.527Z,7.40
2019-01-15T17:40:22.609Z,7.40
2019-01-15T17:43:19.106Z,7.40
2019-01-15T17:46:09.520Z,7.40
2019-01-15T17:49:00.130Z,7.40
2019-01-15T17:51:59.066Z,7.40
2019-01-15T17:54:57.981Z,7.40
2019-01-15T17:57:54.681Z,7.40
2019-01-15T18:01:00.530Z,7.40
2019-01-15T18:04:07.025Z,7.50
2019-01-15T18:06:57.694Z,7.40
2019-01-15T18:09:54.198Z,7.40
2019-01-15T18:12:53.722Z,7.40
2019-01-15T18:15:44.319Z,7.50
2019-01-15T18:18:41.091Z,7.50
2019-01-15T18:21:33.933Z,7.50
2019-01-15T18:24:24.802Z,7.50
2019-01-15T18:27:15.309Z,7.50
2019-01-15T18:30:16.875Z,7.50
2019-01-15T18:33:25.418Z,7.50
2019-01-15T18:36:24.131Z,7.50
2019-01-15T18:39:30.718Z,7.50
2019-01-15T18:42:24.406Z,7.50
2019-01-15T18:45:20.935Z,7.50
2019-01-15T18:48:21.541Z,7.60
2019-01-15T18:51:27.949Z,7.60
2019-01-15T18:54:33.866Z,7.60
2019-01-15T18:57:23.791Z,7.60
2019-01-15T19:00:26.992Z,7.60
2019-01-15T19:03:32.877Z,7.60
2019-01-15T19:06:22.908Z,7.60
2019-01-15T19:09:26.115Z,7.60
2019-01-15T19:12:31.322Z,7.60
2019-01-15T19:15:19.893Z,7.60
2019-01-15T19:18:13.652Z,7.60
2019-01-15T19:21:04.228Z,7.50
2019-01-15T19:24:00.630Z,7.60
2019-01-15T19:27:03.231Z,7.60
2019-01-15T19:30:02.596Z,7.50
2019-01-15T19:33:10.779Z,7.50
2019-01-15T19:36:06.668Z,7.50
2019-01-15T19:39:11.759Z,7.50
2019-01-15T19:42:00.305Z,7.50
2019-01-15T19:44:49.106Z,7.50
2019-01-15T19:47:37.382Z,7.50
2019-01-15T19:50:27.406Z,7.50
2019-01-15T19:53:23.599Z,7.50
2019-01-15T19:56:24.135Z,7.50
2019-01-15T19:59:17.096Z,7.50
2019-01-15T20:02:07.966Z,7.50
2019-01-15T20:05:08.206Z,7.50
2019-01-15T20:07:58.656Z,7.50
2019-01-15T20:10:55.091Z,7.50
2019-01-15T20:13:50.914Z,7.50
2019-01-15T20:16:44.316Z,7.50
2019-01-15T20:19:33.273Z,7.50
2019-01-15T20:22:40.119Z,7.50
2019-01-15T20:25:32.808Z,7.50
2019-01-15T20:28:28.916Z,7.50
2019-01-15T20:31:21.300Z,7.50
2019-01-15T20:34:14.428Z,7.50
2019-01-15T20:37:04.808Z,7.50
2019-01-15T20:40:03.657Z,7.50
2019-01-15T20:43:03.514Z,7.50
2019-01-15T20:45:59.783Z,7.50
2019-01-15T20:48:51.165Z,7.50
2019-01-15T20:51:43.983Z,7.50
2019-01-15T20:54:34.137Z,7.50
2019-01-15T20:57:42.295Z,7.50
2019-01-15T21:00:47.670Z,7.50
2019-01-15T21:03:41.124Z,7.50
2019-01-15T21:06:31.322Z,7.50
2019-01-15T21:09:37.499Z,7.50
2019-01-15T21:12:30.368Z,7.50
2019-01-15T21:15:36.668Z,7.50
2019-01-15T21:18:29.272Z,7.50
2019-01-15T21:21:25.405Z,7.50
2019-01-15T21:24:21.399Z,7.50
2019-01-15T21:27:27.687Z,7.50
2019-01-15T21:30:36.205Z,7.60
2019-01-15T21:33:37.794Z,7.60
2019-01-15T21:36:27.976Z,7.60
2019-01-15T21:39:34.463Z,7.60
2019-01-15T21:42:27.429Z,7.60
2019-01-15T21:45:17.438Z,7.60
2019-01-15T21:48:07.877Z,7.60
2019-01-15T21:51:04.668Z,7.60
2019-01-15T21:54:13.186Z,7.60
2019-01-15T21:57:05.991Z,7.60
2019-01-15T22:00:02.097Z,7.60
2019-01-15T22:02:52.929Z,7.70
2019-01-15T22:05:41.044Z,7.70
2019-01-15T22:08:37.554Z,7.70
2019-01-15T22:11:28.503Z,7.70
2019-01-15T22:14:18.601Z,7.70
2019-01-15T22:17:08.774Z,7.80
2019-01-15T22:19:57.211Z,7.80
2019-01-15T22:22:55.957Z,7.80
2019-01-15T22:25:55.621Z,7.80
2019-01-15T22:28:51.280Z,7.80
2019-01-15T22:31:43.900Z,7.80
2019-01-15T22:34:35.200Z,7.80
2019-01-15T22:37:37.236Z,7.80
2019-01-15T22:40:30.672Z,7.80
2019-01-15T22:43:21.261Z,7.80
2019-01-15T22:46:25.969Z,7.80
2019-01-15T22:49:31.866Z,7.80
2019-01-15T22:52:34.237Z,7.80
2019-01-15T22:55:36.693Z,7.80
2019-01-15T22:58:26.845Z,7.80
2019-01-15T23:01:27.571Z,7.80
2019-01-15T23:04:32.610Z,7.80
2019-01-15T23:07:23.333Z,7.80
2019-01-15T23:10:13.985Z,7.80
2019-01-15T23:13:13.324Z,7.80
2019-01-15T23:16:06.279Z,7.80
2019-01-15T23:18:59.109Z,7.80
2019-01-15T23:21:52.319Z,7.80
2019-01-15T23:24:45.717Z,7.80
2019-01-15T23:27:36.094Z,7.70
2019-01-15T23:30:39.363Z,7.70
2019-01-15T23:33:35.955Z,7.70
2019-01-15T23:36:44.480Z,7.70
2019-01-15T23:39:41.787Z,7.70
2019-01-15T23:42:37.990Z,7.70
2019-01-15T23:45:26.125Z,7.70
2019-01-15T23:48:19.760Z,7.70
2019-01-15T23:51:19.234Z,7.70
2019-01-15T23:54:12.261Z,7.70
2019-01-15T23:57:10.644Z,7.60
